createdAt,value
2022-08-12T00:02:25.825Z,7.60
2022-08-12T00:06:01.686Z,8.30
2022-08-12T00:09:26.792Z,8.73
2022-08-12T00:12:47.385Z,8.30
2022-08-12T00:16:09.198Z,9.23
2022-08-12T00:19:29.869Z,8.50
2022-08-12T00:22:58.969Z,7.43
2022-08-12T00:26:24.577Z,8.77
2022-08-12T00:29:48.111Z,9.55
2022-08-12T00:33:10.846Z,8.85
2022-08-12T00:36:36.176Z,8.65
2022-08-12T00:39:59.447Z,8.40
2022-08-12T00:43:02.950Z,8.10
2022-08-12T00:46:26.410Z,7.30
2022-08-12T00:49:30.980Z,7.82
2022-08-12T00:52:35.246Z,8.30
2022-08-12T00:55:43.926Z,8.48
2022-08-12T00:58:50.969Z,8.13
2022-08-12T01:02:01.086Z,8.82
2022-08-12T01:05:35.823Z,8.75
2022-08-12T01:09:14.729Z,7.90
2022-08-12T01:12:18.840Z,7.95
2022-08-12T01:15:21.473Z,7.85
2022-08-12T01:18:29.050Z,8.32
2022-08-12T01:21:56.961Z,8.02
2022-08-12T01:25:11.906Z,9.27
2022-08-12T01:28:16.822Z,7.95
2022-08-12T01:31:22.021Z,9.95
2022-08-12T01:34:36.422Z,8.48
2022-08-12T01:37:57.747Z,8.68
2022-08-12T01:41:02.415Z,10.50
2022-08-12T01:44:06.652Z,8.98
2022-08-12T01:47:45.712Z,8.57
2022-08-12T01:51:00.542Z,8.05
2022-08-12T01:54:12.666Z,7.88
2022-08-12T01:57:58.947Z,8.15
2022-08-12T02:00:59.716Z,8.13
2022-08-12T02:04:40.290Z,9.67
2022-08-12T02:08:12.646Z,7.95
2022-08-12T02:11:23.386Z,9.73
2022-08-12T02:14:42.221Z,9.32
2022-08-12T02:18:14.735Z,7.55
2022-08-12T02:21:24.075Z,8.02
2022-08-12T02:24:31.388Z,7.00
2022-08-12T02:27:43.014Z,7.90
2022-08-12T02:30:45.370Z,9.73
2022-08-12T02:33:47.993Z,8.93
2022-08-12T02:36:56.088Z,8.13
2022-08-12T02:40:03.557Z,8.60
2022-08-12T02:43:22.925Z,9.20
2022-08-12T02:46:34.763Z,7.80
2022-08-12T02:49:44.818Z,8.77
2022-08-12T02:52:47.939Z,7.82
2022-08-12T02:55:50.053Z,9.73
2022-08-12T02:58:53.257Z,8.98
2022-08-12T03:01:59.541Z,10.68
2022-08-12T03:05:04.672Z,9.07
2022-08-12T03:08:12.249Z,8.90
2022-08-12T03:11:42.845Z,8.05
2022-08-12T03:14:52.764Z,10.45
2022-08-12T03:18:26.887Z,7.70
2022-08-12T03:21:56.508Z,6.55
2022-08-12T03:25:03.896Z,8.90
2022-08-12T03:28:09.472Z,7.97
2022-08-12T03:31:32.536Z,9.52
2022-08-12T03:34:36.301Z,8.20
2022-08-12T03:37:41.711Z,9.05
2022-08-12T03:41:23.676Z,9.35
2022-08-12T03:45:09.351Z,9.00
2022-08-12T03:51:52.111Z,8.18
2022-08-12T03:55:14.648Z,8.38
2022-08-12T03:58:36.492Z,9.38
2022-08-12T04:01:41.246Z,8.20
2022-08-12T04:04:45.781Z,8.07
2022-08-12T04:07:57.932Z,9.38
2022-08-12T04:11:31.692Z,8.38
2022-08-12T04:14:35.129Z,7.45
2022-08-12T04:17:37.955Z,8.70
2022-08-12T04:21:02.819Z,7.32
2022-08-12T04:24:06.010Z,10.07
2022-08-12T04:27:10.711Z,9.05
2022-08-12T04:30:16.726Z,9.23
2022-08-12T04:33:34.772Z,8.27
2022-08-12T04:36:41.387Z,8.70
2022-08-12T04:39:45.610Z,8.65
2022-08-12T04:42:47.893Z,8.60
2022-08-12T04:45:50.190Z,8.05
2022-08-12T04:48:54.100Z,7.78
2022-08-12T04:51:59.537Z,10.15
2022-08-12T04:55:03.656Z,8.77
2022-08-12T04:58:07.069Z,7.90
2022-08-12T05:01:10.673Z,9.57
2022-08-12T05:04:13.182Z,8.27
2022-08-12T05:07:15.363Z,8.80
2022-08-12T05:10:18.970Z,9.65
2022-08-12T05:13:26.268Z,9.77
2022-08-12T05:16:31.176Z,10.55
2022-08-12T05:19:36.277Z,7.93
2022-08-12T05:22:39.828Z,9.03
2022-08-12T05:25:44.033Z,9.55
2022-08-12T05:28:46.461Z,9.20
2022-08-12T05:31:49.743Z,7.50
2022-08-12T05:34:53.824Z,9.57
2022-08-12T05:38:14.277Z,9.75
2022-08-12T05:41:20.592Z,8.52
2022-08-12T05:44:23.196Z,9.65
2022-08-12T05:47:36.728Z,7.85
2022-08-12T05:50:48.469Z,9.07
2022-08-12T05:53:52.650Z,9.23
2022-08-12T05:59:57.165Z,9.57
2022-08-12T06:03:03.393Z,9.73
2022-08-12T06:06:07.297Z,8.68
2022-08-12T06:09:12.334Z,9.93
2022-08-12T06:12:21.529Z,9.35
2022-08-12T06:15:23.716Z,9.10
2022-08-12T06:18:29.795Z,10.05
2022-08-12T06:21:33.428Z,7.45
2022-08-12T06:24:35.728Z,7.95
2022-08-12T06:28:06.844Z,8.55
2022-08-12T06:31:26.904Z,7.88
2022-08-12T06:35:25.221Z,9.18
2022-08-12T06:37:57.672Z,8.98
2022-08-12T06:41:30.160Z,11.02
2022-08-12T06:44:32.878Z,8.38
2022-08-12T06:47:38.439Z,8.23
2022-08-12T06:50:42.598Z,8.52
2022-08-12T06:53:44.956Z,7.05
2022-08-12T06:57:03.514Z,7.53
2022-08-12T07:00:08.730Z,8.82
2022-08-12T07:03:23.081Z,10.02
2022-08-12T07:06:26.009Z,8.45
2022-08-12T07:10:03.854Z,6.97
2022-08-12T07:12:57.649Z,7.85
2022-08-12T07:16:01.414Z,7.00
2022-08-12T07:19:05.000Z,7.15
2022-08-12T07:22:10.041Z,7.68
2022-08-12T07:28:44.213Z,6.80
2022-08-12T07:31:46.729Z,5.30
2022-08-12T07:34:49.949Z,5.35
2022-08-12T07:37:53.407Z,5.78
2022-08-12T07:41:06.357Z,5.72
2022-08-12T07:44:10.241Z,6.38
2022-08-12T07:47:12.784Z,6.22
2022-08-12T07:50:23.399Z,6.30
2022-08-12T07:53:25.973Z,6.10
2022-08-12T07:56:28.974Z,6.55
2022-08-12T07:59:34.225Z,4.43
2022-08-12T08:02:37.696Z,5.15
2022-08-12T08:05:46.636Z,5.25
2022-08-12T08:08:48.846Z,5.05
2022-08-12T08:12:18.956Z,4.80
2022-08-12T08:16:01.311Z,5.50
2022-08-12T08:18:59.524Z,6.05
2022-08-12T08:22:01.599Z,4.75
2022-08-12T08:25:04.506Z,5.17
2022-08-12T08:28:26.669Z,6.50
2022-08-12T08:31:29.000Z,5.20
2022-08-12T08:34:53.920Z,4.35
2022-08-12T08:37:53.778Z,3.90
2022-08-12T08:41:14.683Z,4.50
2022-08-12T08:44:38.448Z,3.97
2022-08-12T08:47:44.888Z,4.40
2022-08-12T08:50:47.273Z,4.93
2022-08-12T08:54:12.353Z,5.07
2022-08-12T08:57:14.752Z,4.28
2022-08-12T09:00:19.795Z,4.18
2022-08-12T09:05:07.637Z,4.30
2022-08-12T09:06:53.870Z,5.20
2022-08-12T09:10:02.999Z,4.40
2022-08-12T09:13:29.201Z,5.05
2022-08-12T09:20:15.986Z,4.55
2022-08-12T09:23:59.127Z,4.43
2022-08-12T09:26:46.488Z,4.40
2022-08-12T09:30:09.633Z,5.03
2022-08-12T09:33:14.991Z,3.85
2022-08-12T09:36:31.306Z,6.00
2022-08-12T09:40:05.338Z,5.70
2022-08-12T09:43:26.307Z,4.57
2022-08-12T09:46:34.466Z,4.85
2022-08-12T09:49:42.043Z,4.05
2022-08-12T09:52:46.352Z,5.05
2022-08-12T09:56:05.696Z,6.55
2022-08-12T09:59:15.943Z,4.32
2022-08-12T10:02:43.083Z,4.25
2022-08-12T10:06:19.940Z,4.00
2022-08-12T10:09:14.075Z,4.93
2022-08-12T10:12:36.436Z,4.20
2022-08-12T10:16:02.601Z,4.55
2022-08-12T10:19:04.452Z,4.10
2022-08-12T10:22:17.227Z,3.53
2022-08-12T10:26:18.166Z,4.72
2022-08-12T10:30:03.267Z,3.78
2022-08-12T10:32:59.907Z,3.75
2022-08-12T10:36:05.280Z,3.50
2022-08-12T10:40:00.034Z,3.13
2022-08-12T10:43:00.941Z,3.15
2022-08-12T10:46:03.097Z,4.20
2022-08-12T10:50:04.662Z,5.22
2022-08-12T10:55:43.824Z,4.60
2022-08-12T10:58:47.979Z,4.47
2022-08-12T11:04:19.710Z,5.10
2022-08-12T11:07:05.149Z,4.50
2022-08-12T11:08:42.934Z,5.13
2022-08-12T11:12:34.605Z,4.93
2022-08-12T11:15:18.754Z,6.30
2022-08-12T11:18:24.819Z,5.50
2022-08-12T11:21:57.794Z,5.80
2022-08-12T11:24:51.389Z,6.50
2022-08-12T11:28:00.611Z,6.05
2022-08-12T11:31:11.861Z,5.65
2022-08-12T11:34:52.947Z,5.30
2022-08-12T11:37:59.142Z,6.03
2022-08-12T11:41:05.266Z,6.57
2022-08-12T11:44:36.749Z,5.82
2022-08-12T11:47:29.963Z,6.30
2022-08-12T11:50:34.453Z,6.47
2022-08-12T11:53:57.724Z,6.47
2022-08-12T11:58:07.354Z,6.65
2022-08-12T12:03:48.901Z,7.07
2022-08-12T12:06:53.195Z,6.88
2022-08-12T12:09:55.713Z,6.82
2022-08-12T12:12:58.428Z,7.50
2022-08-12T12:16:05.839Z,7.25
2022-08-12T12:19:10.219Z,6.43
2022-08-12T12:22:15.733Z,6.65
2022-08-12T12:26:06.869Z,5.88
2022-08-12T12:28:54.277Z,6.60
2022-08-12T12:32:09.079Z,7.40
2022-08-12T12:36:06.114Z,6.07
2022-08-12T12:38:36.257Z,5.35
2022-08-12T12:42:41.685Z,6.32
2022-08-12T12:45:00.907Z,8.02
2022-08-12T12:48:04.963Z,6.97
2022-08-12T12:51:48.235Z,6.63
2022-08-12T12:54:38.247Z,6.80
2022-08-12T12:58:00.215Z,7.53
2022-08-12T13:01:04.981Z,6.22
2022-08-12T13:04:27.320Z,7.75
2022-08-12T13:07:54.833Z,6.30
2022-08-12T13:10:56.231Z,6.10
2022-08-12T13:14:07.187Z,6.45
2022-08-12T13:17:19.807Z,5.82
2022-08-12T13:20:38.031Z,6.18
2022-08-12T13:23:47.933Z,6.45
2022-08-12T13:26:50.734Z,5.47
2022-08-12T13:29:56.254Z,4.55
2022-08-12T13:33:00.624Z,5.43
2022-08-12T13:36:07.694Z,5.10
2022-08-12T13:39:12.469Z,6.68
2022-08-12T13:42:19.404Z,5.68
2022-08-12T13:45:22.729Z,5.22
2022-08-12T13:48:28.959Z,6.20
2022-08-12T13:51:41.447Z,6.82
2022-08-12T13:54:56.344Z,5.95
2022-08-12T13:58:01.669Z,6.53
2022-08-12T14:01:06.199Z,5.38
2022-08-12T14:04:11.399Z,5.95
2022-08-12T14:07:14.430Z,5.75
2022-08-12T14:10:37.468Z,4.60
2022-08-12T14:14:03.691Z,5.47
2022-08-12T14:17:10.493Z,3.80
2022-08-12T14:20:16.197Z,5.07
2022-08-12T14:24:07.947Z,5.65
2022-08-12T14:26:43.667Z,4.78
2022-08-12T14:30:05.083Z,5.50
2022-08-12T14:33:11.236Z,5.70
2022-08-12T14:36:14.985Z,5.00
2022-08-12T14:39:18.057Z,5.05
2022-08-12T14:42:20.771Z,4.53
2022-08-12T14:45:44.430Z,5.60
2022-08-12T14:48:51.111Z,4.00
2022-08-12T14:52:44.211Z,5.78
2022-08-12T14:58:59.984Z,4.88
2022-08-12T15:05:08.261Z,3.55
2022-08-12T15:08:14.281Z,4.47
2022-08-12T15:11:48.889Z,4.40
2022-08-12T15:14:50.107Z,4.93
2022-08-12T15:18:02.014Z,5.35
2022-08-12T15:21:11.117Z,5.57
2022-08-12T15:24:13.780Z,3.72
2022-08-12T15:27:22.119Z,5.25
2022-08-12T15:30:25.237Z,3.72
2022-08-12T15:33:45.130Z,4.00
2022-08-12T15:36:54.930Z,4.50
2022-08-12T15:40:01.163Z,3.80
2022-08-12T15:43:08.242Z,6.18
2022-08-12T15:46:15.511Z,4.47
2022-08-12T15:49:19.028Z,3.85
2022-08-12T15:52:27.471Z,4.05
2022-08-12T15:55:33.484Z,4.05
2022-08-12T15:58:38.477Z,4.75
2022-08-12T16:01:41.626Z,4.10
2022-08-12T16:04:43.780Z,4.53
2022-08-12T16:07:51.403Z,3.17
2022-08-12T16:10:53.961Z,3.75
2022-08-12T16:13:56.148Z,4.43
2022-08-12T16:17:00.135Z,4.85
2022-08-12T16:20:05.545Z,4.05
2022-08-12T16:23:21.399Z,4.63
2022-08-12T16:26:36.773Z,4.47
2022-08-12T16:29:53.334Z,3.67
2022-08-12T16:32:58.907Z,5.18
2022-08-12T16:36:18.789Z,3.67
2022-08-12T16:39:22.328Z,4.20
2022-08-12T16:42:28.468Z,3.67
2022-08-12T16:46:23.332Z,4.80
2022-08-12T16:48:55.961Z,3.63
2022-08-12T16:52:00.721Z,4.22
2022-08-12T16:55:03.953Z,4.85
2022-08-12T16:58:28.012Z,4.28
2022-08-12T17:01:35.073Z,4.30
2022-08-12T17:04:40.616Z,3.72
2022-08-12T17:07:47.199Z,4.35
2022-08-12T17:10:54.519Z,4.90
2022-08-12T17:13:56.913Z,4.00
2022-08-12T17:16:59.064Z,4.63
2022-08-12T17:20:34.505Z,3.63
2022-08-12T17:23:48.017Z,3.58
2022-08-12T17:26:54.200Z,4.35
2022-08-12T17:30:00.624Z,3.78
2022-08-12T17:33:11.516Z,4.13
2022-08-12T17:36:14.764Z,4.18
2022-08-12T17:39:17.186Z,4.45
2022-08-12T17:42:34.830Z,5.30
2022-08-12T17:45:42.470Z,3.42
2022-08-12T17:48:54.986Z,4.20
2022-08-12T17:52:02.003Z,3.30
2022-08-12T17:55:16.601Z,4.15
2022-08-12T17:58:37.156Z,4.38
2022-08-12T18:01:45.647Z,3.85
2022-08-12T18:05:04.975Z,4.30
2022-08-12T18:08:12.127Z,4.35
2022-08-12T18:12:05.609Z,3.95
2022-08-12T18:15:01.343Z,3.80
2022-08-12T18:18:04.334Z,3.92
2022-08-12T18:21:10.778Z,4.00
2022-08-12T18:24:21.496Z,3.40
2022-08-12T18:27:42.121Z,4.90
2022-08-12T18:30:53.515Z,4.30
2022-08-12T18:34:00.897Z,3.88
2022-08-12T18:37:11.759Z,4.05
2022-08-12T18:40:47.842Z,3.90
2022-08-12T18:44:02.608Z,4.43
2022-08-12T18:47:10.523Z,4.82
2022-08-12T18:50:15.852Z,4.22
2022-08-12T18:53:31.013Z,4.28
2022-08-12T18:56:43.177Z,6.28
2022-08-12T19:00:01.552Z,4.20
2022-08-12T19:03:09.187Z,4.50
2022-08-12T19:06:27.482Z,4.15
2022-08-12T19:09:57.480Z,5.65
2022-08-12T19:16:28.432Z,4.57
2022-08-12T19:19:37.219Z,4.00
2022-08-12T19:23:02.219Z,5.22
2022-08-12T19:26:12.702Z,3.78
2022-08-12T19:29:18.375Z,4.35
2022-08-12T19:32:24.099Z,4.50
2022-08-12T19:36:07.859Z,4.20
2022-08-12T19:38:57.122Z,4.65
2022-08-12T19:42:01.127Z,5.13
2022-08-12T19:45:06.945Z,3.90
2022-08-12T19:48:17.928Z,4.88
2022-08-12T19:51:35.880Z,4.40
2022-08-12T19:54:38.804Z,4.85
2022-08-12T19:58:01.383Z,4.50
2022-08-12T20:01:10.913Z,4.28
2022-08-12T20:04:14.427Z,4.35
2022-08-12T20:07:23.488Z,4.47
2022-08-12T20:10:35.513Z,4.85
2022-08-12T20:13:42.124Z,4.95
2022-08-12T20:16:52.325Z,4.57
2022-08-12T20:20:16.636Z,5.90
2022-08-12T20:23:50.833Z,3.75
2022-08-12T20:26:52.072Z,2.97
2022-08-12T20:30:05.592Z,4.78
2022-08-12T20:33:17.629Z,4.80
2022-08-12T20:36:42.469Z,4.45
2022-08-12T20:39:53.526Z,4.22
2022-08-12T20:42:59.863Z,4.00
2022-08-12T20:46:02.365Z,4.47
2022-08-12T20:49:14.803Z,4.50
2022-08-12T20:52:19.822Z,4.22
2022-08-12T20:55:22.005Z,5.18
2022-08-12T20:58:44.829Z,4.70
2022-08-12T21:01:49.244Z,4.47
2022-08-12T21:05:19.564Z,5.13
2022-08-12T21:08:24.987Z,4.90
2022-08-12T21:11:27.113Z,4.13
2022-08-12T21:14:39.679Z,4.88
2022-08-12T21:18:09.735Z,3.92
2022-08-12T21:21:23.636Z,5.07
2022-08-12T21:24:31.693Z,5.35
2022-08-12T21:27:58.569Z,4.22
2022-08-12T21:32:34.324Z,4.68
2022-08-12T21:34:26.028Z,5.00
2022-08-12T21:37:31.984Z,4.28
2022-08-12T21:40:52.057Z,5.38
2022-08-12T21:44:01.679Z,4.90
2022-08-12T21:47:18.268Z,5.25
2022-08-12T21:50:29.023Z,4.70
2022-08-12T21:54:06.912Z,5.97
2022-08-12T21:56:54.129Z,4.63
2022-08-12T21:59:56.656Z,6.47
2022-08-12T22:03:17.286Z,5.07
2022-08-12T22:06:43.847Z,4.03
2022-08-12T22:09:47.056Z,5.88
2022-08-12T22:13:01.091Z,5.75
2022-08-12T22:16:04.001Z,5.10
2022-08-12T22:19:06.697Z,4.67
2022-08-12T22:22:08.810Z,4.60
2022-08-12T22:25:16.899Z,4.80
2022-08-12T22:28:59.082Z,5.35
2022-08-12T22:32:02.460Z,5.07
2022-08-12T22:35:29.295Z,5.45
2022-08-12T22:38:32.225Z,5.38
2022-08-12T22:41:56.720Z,4.57
2022-08-12T22:45:18.448Z,5.47
2022-08-12T22:48:26.507Z,7.43
2022-08-12T22:52:00.005Z,5.13
2022-08-12T22:55:02.821Z,5.20
2022-08-12T22:58:08.430Z,6.07
2022-08-12T23:01:50.183Z,5.32
2022-08-12T23:04:37.187Z,5.25
2022-08-12T23:07:59.004Z,5.22
2022-08-12T23:11:04.640Z,4.82
2022-08-12T23:14:12.637Z,4.60
2022-08-12T23:17:21.450Z,4.15
2022-08-12T23:20:37.057Z,4.32
2022-08-12T23:24:09.586Z,4.65
2022-08-12T23:27:21.540Z,5.30
2022-08-12T23:30:32.036Z,4.95
2022-08-12T23:34:01.989Z,5.13
2022-08-12T23:37:00.347Z,3.83
2022-08-12T23:40:14.052Z,5.82
2022-08-12T23:43:18.373Z,5.70
2022-08-12T23:46:25.741Z,4.22
2022-08-12T23:49:58.576Z,4.72
2022-08-12T23:52:52.975Z,4.55
2022-08-12T23:55:57.261Z,5.10
2022-08-12T23:59:00.246Z,5.10
